Time,TemperatureF,DewpointF,PressureIn,WindDirection,WindDirectionDegrees,WindSpeedMPH,WindSpeedGustMPH,Humidity,HourlyPrecipIn,Conditions,Clouds,dailyrainin,SoftwareType,DateUTC
2013-03-03 00:01:00,55.0,19.0,30.16,NE,43,1.0,5.0,24,0.00,,,0.00,,2013-03-03 08:01:00,
2013-03-03 00:11:00,55.0,19.0,30.16,NE,43,1.0,5.0,24,0.00,,,0.00,,2013-03-03 08:11:00,
2013-03-03 00:21:00,57.0,19.0,30.16,WSW,249,5.0,10.0,22,0.00,,,0.00,,2013-03-03 08:21:00,
2013-03-03 00:31:00,59.0,17.0,30.16,SE,130,8.0,10.0,19,0.00,,,0.00,,2013-03-03 08:31:00,
2013-03-03 00:41:00,59.0,17.0,30.16,SE,130,8.0,10.0,19,0.00,,,0.00,,2013-03-03 08:41:00,
2013-03-03 00:53:00,61.0,18.0,30.16,SE,131,8.0,13.0,19,0.00,,,0.00,,2013-03-03 08:53:00,
2013-03-03 01:01:00,60.0,18.0,30.16,ESE,108,9.0,13.0,19,0.00,,,0.00,,2013-03-03 09:01:00,
2013-03-03 01:11:00,60.0,18.0,30.16,ESE,108,9.0,13.0,19,0.00,,,0.00,,2013-03-03 09:11:00,
2013-03-03 01:21:00,59.0,19.0,30.16,ESE,122,6.0,11.0,21,0.00,,,0.00,,2013-03-03 09:21:00,
2013-03-03 01:31:00,59.0,20.0,30.16,ESE,108,11.0,16.0,22,0.00,,,0.00,,2013-03-03 09:31:00,
2013-03-03 01:41:00,59.0,20.0,30.16,ESE,108,11.0,16.0,22,0.00,,,0.00,,2013-03-03 09:41:00,
2013-03-03 01:52:00,59.0,21.0,30.16,East,100,10.0,15.0,23,0.00,,,0.00,,2013-03-03 09:52:00,
2013-03-03 02:01:00,58.0,21.0,30.16,East,101,13.0,18.0,24,0.00,,,0.00,,2013-03-03 10:01:00,
2013-03-03 02:11:00,58.0,21.0,30.16,East,101,13.0,18.0,24,0.00,,,0.00,,2013-03-03 10:11:00,
2013-03-03 02:21:00,56.0,23.0,30.16,East,89,11.0,15.0,27,0.00,,,0.00,,2013-03-03 10:21:00,
2013-03-03 02:31:00,54.0,22.0,30.16,East,84,7.0,9.0,29,0.00,,,0.00,,2013-03-03 10:31:00,
2013-03-03 02:41:00,54.0,22.0,30.16,East,84,7.0,9.0,29,0.00,,,0.00,,2013-03-03 10:41:00,
2013-03-03 02:52:00,53.0,22.0,30.14,ESE,117,6.0,8.0,30,0.00,,,0.00,,2013-03-03 10:52:00,
2013-03-03 03:01:00,59.0,21.0,30.13,East,84,6.0,11.0,23,0.00,,,0.00,,2013-03-03 11:01:00,
2013-03-03 03:11:00,59.0,21.0,30.13,East,84,6.0,11.0,23,0.00,,,0.00,,2013-03-03 11:11:00,
2013-03-03 03:21:00,62.0,20.0,30.13,NE,43,11.0,17.0,20,0.00,,,0.00,,2013-03-03 11:21:00,
2013-03-03 03:31:00,64.0,20.0,30.12,NE,56,13.0,17.0,18,0.00,,,0.00,,2013-03-03 11:31:00,
2013-03-03 03:52:00,64.0,20.0,30.12,ENE,58,14.0,19.0,18,0.00,,,0.00,,2013-03-03 11:52:00,
2013-03-03 04:01:00,64.0,24.0,30.11,NE,41,15.0,22.0,22,0.00,,,0.00,,2013-03-03 12:01:00,
2013-03-03 04:21:00,63.0,27.0,30.10,NNE,27,18.0,30.0,25,0.00,,,0.00,,2013-03-03 12:21:00,
2013-03-03 04:31:00,63.0,28.0,30.10,NE,46,18.0,27.0,26,0.00,,,0.00,,2013-03-03 12:31:00,
2013-03-03 04:52:00,63.0,28.0,30.09,NNE,30,11.0,21.0,26,0.00,,,0.00,,2013-03-03 12:52:00,
2013-03-03 05:01:00,64.0,29.0,30.08,NE,56,15.0,22.0,27,0.00,,,0.00,,2013-03-03 13:01:00,
2013-03-03 05:21:00,60.0,28.0,30.09,ESE,105,8.0,10.0,29,0.00,,,0.00,,2013-03-03 13:21:00,
2013-03-03 05:31:00,64.0,30.0,30.09,ENE,60,12.0,16.0,28,0.00,,,0.00,,2013-03-03 13:31:00,
2013-03-03 05:41:00,64.0,30.0,30.09,ENE,60,12.0,16.0,28,0.00,,,0.00,,2013-03-03 13:41:00,
2013-03-03 05:52:00,64.0,31.0,30.09,NE,41,13.0,20.0,29,0.00,,,0.00,,2013-03-03 13:52:00,
2013-03-03 06:01:00,64.0,31.0,30.09,ENE,70,15.0,20.0,29,0.00,,,0.00,,2013-03-03 14:01:00,
2013-03-03 06:11:00,64.0,31.0,30.09,ENE,70,15.0,20.0,29,0.00,,,0.00,,2013-03-03 14:11:00,
2013-03-03 06:21:00,64.0,31.0,30.09,NE,44,12.0,19.0,29,0.00,,,0.00,,2013-03-03 14:21:00,
2013-03-03 06:31:00,64.0,32.0,30.09,NE,49,14.0,20.0,30,0.00,,,0.00,,2013-03-03 14:31:00,
2013-03-03 06:42:00,64.0,32.0,30.09,NE,49,14.0,20.0,30,0.00,,,0.00,,2013-03-03 14:42:00,
2013-03-03 06:52:00,64.0,32.0,30.10,NE,54,13.0,21.0,30,0.00,,,0.00,,2013-03-03 14:52:00,
2013-03-03 07:01:00,64.0,32.0,30.11,ESE,106,14.0,20.0,30,0.00,,,0.00,,2013-03-03 15:01:00,
2013-03-03 07:11:00,64.0,32.0,30.11,ESE,106,14.0,20.0,30,0.00,,,0.00,,2013-03-03 15:11:00,
2013-03-03 07:21:00,61.0,31.0,30.11,ENE,58,9.0,14.0,32,0.00,,,0.00,,2013-03-03 15:21:00,
2013-03-03 07:31:00,63.0,30.0,30.10,NNE,19,16.0,25.0,29,0.00,,,0.00,,2013-03-03 15:31:00,
2013-03-03 07:42:00,63.0,30.0,30.10,NNE,19,16.0,25.0,29,0.00,,,0.00,,2013-03-03 15:42:00,
2013-03-03 07:51:00,64.0,30.0,30.09,NE,50,18.0,27.0,28,0.00,,,0.00,,2013-03-03 15:51:00,
2013-03-03 08:01:00,64.0,30.0,30.09,NE,50,18.0,27.0,28,0.00,,,0.00,,2013-03-03 16:01:00,
2013-03-03 08:11:00,64.0,30.0,30.09,NE,50,18.0,27.0,28,0.00,,,0.00,,2013-03-03 16:11:00,
2013-03-03 08:21:00,67.0,29.0,30.09,NNE,27,21.0,28.0,24,0.00,,,0.00,,2013-03-03 16:21:00,
2013-03-03 08:31:00,68.0,30.0,30.09,NE,36,17.0,28.0,24,0.00,,,0.00,,2013-03-03 16:31:00,
2013-03-03 08:42:00,68.0,30.0,30.09,NE,36,17.0,28.0,24,0.00,,,0.00,,2013-03-03 16:42:00,
2013-03-03 08:52:00,69.0,30.0,30.09,NE,46,19.0,26.0,23,0.00,,,0.00,,2013-03-03 16:52:00,
2013-03-03 09:01:00,69.0,31.0,30.09,NE,41,17.0,26.0,24,0.00,,,0.00,,2013-03-03 17:01:00,
2013-03-03 09:11:00,69.0,29.0,30.09,NE,49,19.0,26.0,22,0.00,,,0.00,,2013-03-03 17:11:00,
2013-03-03 09:21:00,69.0,29.0,30.09,NE,49,19.0,26.0,22,0.00,,,0.00,,2013-03-03 17:21:00,
2013-03-03 09:32:00,68.0,28.0,30.09,ENE,63,19.0,27.0,22,0.00,,,0.00,,2013-03-03 17:32:00,
2013-03-03 09:41:00,68.0,28.0,30.09,ENE,63,19.0,27.0,22,0.00,,,0.00,,2013-03-03 17:41:00,
2013-03-03 09:52:00,69.0,29.0,30.09,ENE,61,18.0,27.0,22,0.00,,,0.00,,2013-03-03 17:52:00,
2013-03-03 10:01:00,69.0,30.0,30.09,NNE,32,20.0,27.0,23,0.00,,,0.00,,2013-03-03 18:01:00,
2013-03-03 10:11:00,69.0,30.0,30.09,NNE,32,20.0,27.0,23,0.00,,,0.00,,2013-03-03 18:11:00,
2013-03-03 10:21:00,69.0,29.0,30.09,NE,36,22.0,28.0,22,0.00,,,0.00,,2013-03-03 18:21:00,
2013-03-03 10:31:00,69.0,29.0,30.09,NE,38,21.0,26.0,22,0.00,,,0.00,,2013-03-03 18:31:00,
2013-03-03 10:41:00,69.0,29.0,30.09,NE,38,21.0,26.0,22,0.00,,,0.00,,2013-03-03 18:41:00,
2013-03-03 10:52:00,69.0,29.0,30.09,ENE,72,19.0,27.0,22,0.00,,,0.00,,2013-03-03 18:52:00,
2013-03-03 11:01:00,70.0,29.0,30.08,NE,36,21.0,29.0,22,0.00,,,0.00,,2013-03-03 19:01:00,
2013-03-03 11:11:00,70.0,29.0,30.08,NE,36,21.0,29.0,22,0.00,,,0.00,,2013-03-03 19:11:00,
2013-03-03 11:21:00,69.0,27.0,30.08,NNE,30,20.0,30.0,21,0.00,,,0.00,,2013-03-03 19:21:00,
2013-03-03 11:31:00,69.0,29.0,30.07,ENE,70,19.0,26.0,22,0.00,,,0.00,,2013-03-03 19:31:00,
2013-03-03 11:42:00,69.0,29.0,30.07,ENE,70,19.0,26.0,22,0.00,,,0.00,,2013-03-03 19:42:00,
2013-03-03 11:52:00,69.0,27.0,30.06,NE,50,21.0,33.0,21,0.00,,,0.00,,2013-03-03 19:52:00,
2013-03-03 12:01:00,69.0,29.0,30.04,NE,48,22.0,34.0,22,0.00,,,0.00,,2013-03-03 20:01:00,
2013-03-03 12:11:00,69.0,29.0,30.04,NE,48,22.0,34.0,22,0.00,,,0.00,,2013-03-03 20:11:00,
2013-03-03 12:21:00,69.0,29.0,30.03,NNE,30,21.0,35.0,22,0.00,,,0.00,,2013-03-03 20:21:00,
2013-03-03 12:32:00,69.0,27.0,30.03,NNE,15,21.0,32.0,21,0.00,,,0.00,,2013-03-03 20:32:00,
2013-03-03 12:42:00,69.0,27.0,30.03,NNE,15,21.0,32.0,21,0.00,,,0.00,,2013-03-03 20:42:00,
2013-03-03 12:52:00,69.0,27.0,30.02,ENE,58,20.0,27.0,21,0.00,,,0.00,,2013-03-03 20:52:00,
2013-03-03 13:01:00,69.0,26.0,30.01,NE,41,22.0,30.0,20,0.00,,,0.00,,2013-03-03 21:01:00,
2013-03-03 13:11:00,69.0,26.0,30.01,NE,41,22.0,30.0,20,0.00,,,0.00,,2013-03-03 21:11:00,
2013-03-03 13:21:00,69.0,24.0,30.01,NE,38,23.0,31.0,18,0.00,,,0.00,,2013-03-03 21:21:00,
2013-03-03 13:31:00,69.0,26.0,30.00,NE,50,22.0,32.0,20,0.00,,,0.00,,2013-03-03 21:31:00,
2013-03-03 13:41:00,69.0,26.0,30.00,NE,50,22.0,32.0,20,0.00,,,0.00,,2013-03-03 21:41:00,
2013-03-03 13:52:00,69.0,26.0,30.00,NE,46,21.0,35.0,20,0.00,,,0.00,,2013-03-03 21:52:00,
2013-03-03 14:01:00,69.0,30.0,29.99,NNE,22,23.0,34.0,23,0.00,,,0.00,,2013-03-03 22:01:00,
2013-03-03 14:11:00,69.0,30.0,29.99,NNE,22,23.0,34.0,23,0.00,,,0.00,,2013-03-03 22:11:00,
2013-03-03 14:21:00,68.0,29.0,29.99,NE,38,21.0,34.0,23,0.00,,,0.00,,2013-03-03 22:21:00,
2013-03-03 14:31:00,68.0,29.0,29.99,NE,47,24.0,32.0,23,0.00,,,0.00,,2013-03-03 22:31:00,
2013-03-03 14:41:00,68.0,29.0,29.99,NE,47,24.0,32.0,23,0.00,,,0.00,,2013-03-03 22:41:00,
2013-03-03 14:52:00,67.0,28.0,30.00,NE,41,20.0,32.0,23,0.00,,,0.00,,2013-03-03 22:52:00,
2013-03-03 15:01:00,67.0,28.0,29.99,NNE,32,22.0,29.0,23,0.00,,,0.00,,2013-03-03 23:01:00,
2013-03-03 15:11:00,67.0,28.0,29.99,NNE,32,22.0,29.0,23,0.00,,,0.00,,2013-03-03 23:11:00,
2013-03-03 15:21:00,66.0,27.0,29.98,NNE,30,23.0,34.0,23,0.00,,,0.00,,2013-03-03 23:21:00,
2013-03-03 15:31:00,66.0,27.0,29.99,NNE,27,26.0,33.0,23,0.00,,,0.00,,2013-03-03 23:31:00,
2013-03-03 15:41:00,66.0,27.0,29.99,NNE,27,26.0,33.0,23,0.00,,,0.00,,2013-03-03 23:41:00,
2013-03-03 15:52:00,65.0,27.0,29.98,NE,41,21.0,35.0,24,0.00,,,0.00,,2013-03-03 23:52:00,
2013-03-03 16:01:00,65.0,28.0,29.98,NE,55,21.0,35.0,25,0.00,,,0.00,,2013-03-04 00:01:00,
2013-03-03 16:11:00,65.0,28.0,29.98,NE,55,21.0,35.0,25,0.00,,,0.00,,2013-03-04 00:11:00,
2013-03-03 16:21:00,64.0,29.0,29.97,NE,52,22.0,31.0,27,0.00,,,0.00,,2013-03-04 00:21:00,
2013-03-03 16:32:00,63.0,30.0,29.97,ENE,58,16.0,25.0,29,0.00,,,0.00,,2013-03-04 00:32:00,
2013-03-03 16:41:00,63.0,30.0,29.97,ENE,58,16.0,25.0,29,0.00,,,0.00,,2013-03-04 00:41:00,
2013-03-03 16:52:00,61.0,31.0,29.97,NE,39,24.0,33.0,32,0.00,,,0.00,,2013-03-04 00:52:00,
2013-03-03 17:01:00,61.0,31.0,29.97,NE,36,20.0,32.0,32,0.00,,,0.00,,2013-03-04 01:01:00,
2013-03-03 17:11:00,61.0,31.0,29.97,NE,36,20.0,32.0,32,0.00,,,0.00,,2013-03-04 01:11:00,
2013-03-03 17:21:00,61.0,32.0,29.97,NE,51,25.0,35.0,33,0.00,,,0.00,,2013-03-04 01:21:00,
2013-03-03 17:31:00,60.0,32.0,29.97,NE,52,27.0,38.0,35,0.00,,,0.00,,2013-03-04 01:31:00,
2013-03-03 17:42:00,60.0,32.0,29.97,NE,52,27.0,38.0,35,0.00,,,0.00,,2013-03-04 01:42:00,
2013-03-03 17:52:00,60.0,33.0,29.97,NNE,33,28.0,35.0,36,0.00,,,0.00,,2013-03-04 01:52:00,
2013-03-03 18:01:00,59.0,31.0,29.97,North,1,24.0,39.0,34,0.00,,,0.00,,2013-03-04 02:01:00,
2013-03-03 18:11:00,59.0,31.0,29.97,North,1,24.0,39.0,34,0.00,,,0.00,,2013-03-04 02:11:00,
2013-03-03 18:22:00,59.0,31.0,29.98,NNE,33,23.0,35.0,34,0.00,,,0.00,,2013-03-04 02:22:00,
2013-03-03 18:31:00,59.0,31.0,29.97,NE,47,18.0,28.0,34,0.00,,,0.00,,2013-03-04 02:31:00,
2013-03-03 18:41:00,59.0,31.0,29.97,NE,47,18.0,28.0,34,0.00,,,0.00,,2013-03-04 02:41:00,
2013-03-03 18:52:00,59.0,30.0,29.98,NE,46,18.0,27.0,33,0.00,,,0.00,,2013-03-04 02:52:00,
2013-03-03 19:01:00,59.0,30.0,29.98,ENE,64,16.0,32.0,33,0.00,,,0.00,,2013-03-04 03:01:00,
2013-03-03 19:11:00,59.0,30.0,29.98,ENE,64,16.0,32.0,33,0.00,,,0.00,,2013-03-04 03:11:00,
2013-03-03 19:21:00,58.0,31.0,29.98,NE,47,19.0,32.0,35,0.00,,,0.00,,2013-03-04 03:21:00,
2013-03-03 19:31:00,58.0,33.0,29.98,NE,52,18.0,29.0,38,0.00,,,0.00,,2013-03-04 03:31:00,
2013-03-03 19:41:00,58.0,33.0,29.98,ENE,66,17.0,32.0,38,0.00,,,0.00,,2013-03-04 03:41:00,
2013-03-03 19:52:00,58.0,33.0,29.98,ENE,66,17.0,32.0,38,0.00,,,0.00,,2013-03-04 03:52:00,
2013-03-03 20:01:00,58.0,34.0,29.98,NE,44,21.0,30.0,41,0.00,,,0.00,,2013-03-04 04:01:00,
2013-03-03 20:11:00,58.0,34.0,29.98,NE,44,21.0,30.0,41,0.00,,,0.00,,2013-03-04 04:11:00,
2013-03-03 20:21:00,58.0,34.0,29.98,ENE,66,19.0,31.0,41,0.00,,,0.00,,2013-03-04 04:21:00,
2013-03-03 20:31:00,57.0,34.0,29.99,NE,51,19.0,28.0,42,0.00,,,0.00,,2013-03-04 04:31:00,
2013-03-03 20:41:00,57.0,34.0,29.99,NE,51,19.0,28.0,42,0.00,,,0.00,,2013-03-04 04:41:00,
2013-03-03 20:52:00,57.0,34.0,29.99,NE,51,17.0,27.0,42,0.00,,,0.00,,2013-03-04 04:52:00,
2013-03-03 21:01:00,57.0,34.0,30.00,NE,36,18.0,28.0,41,0.00,,,0.00,,2013-03-04 05:01:00,
2013-03-03 21:11:00,57.0,34.0,30.00,NE,36,18.0,28.0,41,0.00,,,0.00,,2013-03-04 05:11:00,
2013-03-03 21:22:00,56.0,33.0,30.01,ENE,66,16.0,30.0,42,0.00,,,0.00,,2013-03-04 05:22:00,
2013-03-03 21:31:00,56.0,34.0,30.01,ENE,72,15.0,24.0,43,0.00,,,0.00,,2013-03-04 05:31:00,
2013-03-03 21:42:00,56.0,34.0,30.01,ENE,72,15.0,24.0,43,0.00,,,0.00,,2013-03-04 05:42:00,
2013-03-03 21:52:00,56.0,34.0,30.01,ENE,76,16.0,27.0,43,0.00,,,0.00,,2013-03-04 05:52:00,
2013-03-03 22:01:00,55.0,33.0,30.01,NNE,33,15.0,22.0,44,0.00,,,0.00,,2013-03-04 06:01:00,
2013-03-03 22:11:00,55.0,33.0,30.01,NNE,33,15.0,22.0,44,0.00,,,0.00,,2013-03-04 06:11:00,
2013-03-03 22:21:00,55.0,33.0,30.01,ENE,74,15.0,21.0,44,0.00,,,0.00,,2013-03-04 06:21:00,
2013-03-03 22:31:00,55.0,33.0,30.01,NE,51,17.0,25.0,43,0.00,,,0.00,,2013-03-04 06:31:00,
2013-03-03 22:42:00,55.0,33.0,30.01,NE,51,17.0,25.0,43,0.00,,,0.00,,2013-03-04 06:42:00,
2013-03-03 22:52:00,55.0,34.0,30.01,NE,56,15.0,23.0,45,0.00,,,0.00,,2013-03-04 06:52:00,
2013-03-03 23:01:00,55.0,35.0,30.01,NE,44,15.0,23.0,46,0.00,,,0.00,,2013-03-04 07:01:00,
2013-03-03 23:11:00,55.0,35.0,30.01,NE,44,15.0,23.0,46,0.00,,,0.00,,2013-03-04 07:11:00,
2013-03-03 23:21:00,55.0,34.0,30.01,NE,54,16.0,24.0,45,0.00,,,0.00,,2013-03-04 07:21:00,
2013-03-03 23:31:00,55.0,35.0,30.01,NE,44,15.0,26.0,46,0.00,,,0.00,,2013-03-04 07:31:00,
2013-03-03 23:41:00,55.0,35.0,30.01,NE,44,15.0,26.0,46,0.00,,,0.00,,2013-03-04 07:41:00,
2013-03-03 23:52:00,55.0,36.0,30.02,ENE,68,17.0,24.0,48,0.00,,,0.00,,2013-03-04 07:52:00,